Disclaimer

Please do not use the information listed here in-flight or in-navigation, as they are not provided to us by the airports but are provided by volunteers, so they might be outdated.

Search


Regions


Airport information page

Radio informations:
Tower (TWR) - 118.3 MHz
RADAR - 120.7 MHz
INFO - 124.85 MHz
Ground (GND) - 121.85 MHz
Automatic Terminal Information Service (ATIS) - 124.375 MHz
Approach (APP) - 120.7 MHz

Airport informations:
Latitude: 45° 44' 34.55" N
Longitude: 016° 04' 07.60" E
Elevation: 353 feet - 108 meters
Operating hours: 24 hour operations
Operating agency: Civil government, landing fees and diplomatic clearance may be required
Timezone: UTC+1(+2DT) - Last Sunday in March to last Sunday in October
Fuel: Jet A1+, Jet A1 with icing inhibitor.

100/130 MIL Spec, low lead, aviation gasoline (BLUE)

Runway information:
05/23 - 10669 x 148 feet< - >3252 x 45 meters

Recent METARs:
LDZA 180830Z 05008KT 350V100 9999 BKN042 04/M02 Q1026 NOSIG
LDZA 180900Z 06007KT 020V110 9999 BKN040 04/M02 Q1026 NOSIG
LDZA 180930Z 04007KT 360V080 9999 BKN040 04/M02 Q1025 NOSIG

Airport on the map: